Hlavní strana
METAR-TAF:

METAR-TAF

Letiště :

Augusta, Georgie, Spojené státy americké

zeměpisná šířka: 33-21-52N, zeměpisná délka: 081-57-48W, výška: 44 m

Aktuální stav počasí

Zpráva byla vytvořena před 28 minutami, v 17:53 UTC
Severozápadní vítr 14 kt s nárazy do 20 kt
Teplota 11°C
Vlhkost vzduchu 30%
Tlak 1020 hPa
Viditelnost: 16.1 km
Jasno

METAR: KAGS 271753Z 32014G20KT 10SM CLR 11/M06 A3013 RMK AO2 SLP203 T01111056 10111 20039 58004

Čas: 13:21 (18:21 UTC)

Předpověď počasí

Zpráva byla vytvořena před 56 minutami, v 17:25 UTC
Předpověď platná od 27 v 18 UTC do 28 v 18 UTC
Západoseverozápadní vítr 10 kt s nárazy do 18 kt
Viditelnost: 10 km
Jasno
Od 27 v 2200 UTC
Západoseverozápadní vítr 10 kt
Viditelnost: 10 km
Jasno
Od 28 v 0100 UTC
Západní vítr 5 kt
Viditelnost: 10 km
Jasno
Od 28 v 1600 UTC
Západní vítr 12 kt s nárazy do 20 kt
Viditelnost: 10 km
Polojasno ve výšce 25000 ft

TAF: KAGS 271725Z 2718/2818 30010G18KT P6SM SKC FM272200 30010KT P6SM SKC FM280100 28005KT P6SM SKC FM281600 26012G20KT P6SM SCT250

Stav a předpovědi počasí z více než 4 000 letišť (zprávy METAR a TAF).

Červené a žluté tečky na mapě představují dostupné meteorologické stanice.

Když kurzor umístíte na tečku, zobrazí se název stanice.

Pak kliknutím zobrazíte stav a předpověď počasí.

Chcete-li změnit mapu, kliknutím na zelené tlačítko se znaménkem +mapu přiblížíte, kliknutím na zelené tlačítko se znaménkem – mapu oddálíte a kliknutím na zelené šipky přejdete na sousední mapy.


METAR-TAF: